Time;durP1;ratioP1;P1;durP2;ratioP2;P2;SDS_P1;SDS_P2;PMS_P1;PMS_P2;Temp;Humidity;BMP_temperature;BMP_pressure;BME280_temperature;BME280_humidity;BME280_pressure;Samples;Min_cycle;Max_cycle;Signal;HPM_P1;HPM_P2
2021/03/01 00:00:14;;;;;;;18.27;9.53;;;;;;;0.46;99.85;99988.23;1761709;80;21389;-68
2021/03/01 00:02:42;;;;;;;14.38;7.42;;;;;;;0.49;99.84;99995.86;1761423;80;20959;-67
2021/03/01 00:05:13;;;;;;;15.00;8.53;;;;;;;0.50;99.87;99993.45;1761402;81;21605;-68
2021/03/01 00:07:42;;;;;;;12.25;7.05;;;;;;;0.53;99.89;99998.38;1761901;81;21125;-67
2021/03/01 00:10:11;;;;;;;15.18;8.00;;;;;;;0.53;99.79;99998.91;1761839;80;21058;-67
2021/03/01 00:12:42;;;;;;;11.93;6.70;;;;;;;0.52;99.71;100000.78;1762042;81;21097;-68
2021/03/01 00:15:13;;;;;;;12.23;7.00;;;;;;;0.50;99.60;100005.61;1761606;80;21003;-68
2021/03/01 00:17:41;;;;;;;12.95;6.78;;;;;;;0.52;99.66;100001.31;1766861;81;20952;-68
2021/03/01 00:20:11;;;;;;;10.93;5.67;;;;;;;0.54;99.74;100002.72;1767081;81;21125;-68
2021/03/01 00:22:43;;;;;;;11.68;6.45;;;;;;;0.58;99.75;100000.33;1767110;81;21133;-68
2021/03/01 00:25:13;;;;;;;9.35;5.70;;;;;;;0.56;99.50;100010.05;1767551;80;21230;-68
2021/03/01 00:27:40;;;;;;;8.65;5.45;;;;;;;0.55;99.40;100014.34;1767051;81;21089;-68
2021/03/01 00:30:10;;;;;;;7.97;4.62;;;;;;;0.57;99.50;100023.03;1767282;80;21097;-68
2021/03/01 00:32:39;;;;;;;7.60;5.03;;;;;;;0.56;99.38;100024.91;1767174;81;21196;-69
2021/03/01 00:35:09;;;;;;;8.45;4.83;;;;;;;0.55;99.19;100033.26;1767008;81;21195;-69
2021/03/01 00:37:37;;;;;;;8.50;5.42;;;;;;;0.55;99.17;100036.78;1767043;80;21412;-68
2021/03/01 00:40:07;;;;;;;10.00;5.62;;;;;;;0.56;99.22;100042.48;1767085;81;21218;-68
2021/03/01 00:42:34;;;;;;;7.58;4.90;;;;;;;0.59;99.27;100042.50;1767245;81;21584;-68
2021/03/01 00:45:06;;;;;;;8.78;4.87;;;;;;;0.58;99.08;100049.78;1766973;81;21062;-68
2021/03/01 00:47:33;;;;;;;8.10;5.33;;;;;;;0.56;98.92;100045.17;1767284;81;21073;-69
2021/03/01 00:50:02;;;;;;;9.33;5.33;;;;;;;0.55;98.78;100040.84;1767249;81;21434;-68
2021/03/01 00:52:29;;;;;;;7.17;5.05;;;;;;;0.53;98.75;100033.50;1767094;81;21609;-67
2021/03/01 00:54:59;;;;;;;8.03;5.05;;;;;;;0.50;98.64;100029.92;1766873;81;21039;-68
2021/03/01 00:57:27;;;;;;;8.43;4.80;;;;;;;0.49;98.62;100032.86;1761211;81;21138;-68
2021/03/01 00:59:55;;;;;;;7.00;4.45;;;;;;;0.46;98.53;100026.58;1760960;81;21176;-68
2021/03/01 01:02:26;;;;;;;7.00;4.47;;;;;;;0.45;98.57;100037.09;1761142;81;23584;-67
2021/03/01 01:04:59;;;;;;;7.58;4.47;;;;;;;0.42;98.49;100041.62;1759151;81;21624;-69
2021/03/01 01:07:27;;;;;;;7.12;5.20;;;;;;;0.40;98.46;100052.66;1761075;81;21136;-69
2021/03/01 01:09:55;;;;;;;11.38;5.83;;;;;;;0.38;98.42;100069.62;1761106;81;21179;-68
2021/03/01 01:12:22;;;;;;;9.43;5.65;;;;;;;0.39;98.56;100061.82;1761266;81;21187;-69
2021/03/01 01:14:50;;;;;;;7.87;5.35;;;;;;;0.42;98.72;100070.80;1760997;81;22371;-69
2021/03/01 01:17:18;;;;;;;8.60;5.22;;;;;;;0.43;98.67;100076.50;1755561;81;21144;-68
2021/03/01 01:19:45;;;;;;;8.03;5.15;;;;;;;0.43;98.54;100070.27;1752612;81;21112;-68
2021/03/01 01:22:13;;;;;;;7.72;4.55;;;;;;;0.42;98.48;100079.44;1752212;81;20958;-68
2021/03/01 01:24:41;;;;;;;7.62;4.67;;;;;;;0.43;98.53;100082.43;1752667;81;21140;-68
2021/03/01 01:27:09;;;;;;;6.62;4.92;;;;;;;0.42;98.44;100085.66;1752634;80;21388;-68
2021/03/01 01:29:37;;;;;;;7.22;4.92;;;;;;;0.39;98.33;100082.08;1752394;81;21128;-68
2021/03/01 01:32:05;;;;;;;6.78;4.87;;;;;;;0.38;98.33;100092.59;1752558;81;21199;-68
2021/03/01 01:34:35;;;;;;;12.07;5.75;;;;;;;0.37;98.34;100096.34;1752531;81;21033;-68
2021/03/01 01:37:03;;;;;;;6.30;4.70;;;;;;;0.38;98.46;100108.80;1752268;81;21587;-69
2021/03/01 01:39:31;;;;;;;8.98;4.85;;;;;;;0.38;98.39;100114.20;1752673;81;21216;-69
2021/03/01 01:41:59;;;;;;;6.72;4.28;;;;;;;0.37;98.36;100117.95;1752628;81;21174;-69
2021/03/01 01:44:26;;;;;;;7.35;5.08;;;;;;;0.38;98.45;100118.25;1752356;81;21141;-68
2021/03/01 01:46:54;;;;;;;6.60;4.97;;;;;;;0.38;98.41;100122.83;1752649;80;20922;-68
2021/03/01 01:49:21;;;;;;;7.42;5.45;;;;;;;0.37;98.38;100138.20;1752589;81;21599;-68
2021/03/01 01:51:49;;;;;;;7.60;4.92;;;;;;;0.33;98.26;100143.78;1752293;81;22486;-68
2021/03/01 01:54:16;;;;;;;8.35;5.15;;;;;;;0.30;98.32;100143.72;1749391;81;21126;-68
2021/03/01 01:56:44;;;;;;;7.67;5.37;;;;;;;0.28;98.37;100142.31;1748265;82;20937;-68
2021/03/01 01:59:12;;;;;;;8.78;4.45;;;;;;;0.27;98.56;100148.24;1747965;82;21087;-68
2021/03/01 02:01:40;;;;;;;6.55;4.40;;;;;;;0.25;98.57;100144.95;1721113;82;21087;-67
2021/03/01 02:04:19;;;;;;;7.15;4.95;;;;;;;0.25;98.68;100151.70;1748136;82;21488;-67
2021/03/01 02:07:11;;;;;;;9.55;5.00;;;;;;;0.23;98.67;100156.52;1748078;82;21008;-68
2021/03/01 02:10:01;;;;;;;9.03;5.35;;;;;;;0.21;98.74;100153.22;1746037;82;20949;-68
2021/03/01 02:12:38;;;;;;;8.05;5.33;;;;;;;0.23;98.90;100159.74;1748117;82;21091;-68
2021/03/01 02:15:11;;;;;;;8.23;5.90;;;;;;;0.22;98.90;100166.20;1748014;81;21197;-67
2021/03/01 02:17:38;;;;;;;;;;;;;;;0.21;98.97;100170.78;1750639;82;21174;-69
2021/03/01 02:20:11;;;;;;;9.03;6.00;;;;;;;0.21;99.00;100176.18;1748102;82;20137;-68
2021/03/01 02:22:40;;;;;;;9.78;5.65;;;;;;;0.22;99.07;100183.22;1748137;82;21019;-67
2021/03/01 02:25:12;;;;;;;9.00;5.97;;;;;;;0.22;99.08;100194.02;1748154;82;21202;-67
2021/03/01 02:27:50;;;;;;;9.95;6.35;;;;;;;0.22;99.04;100198.60;1721168;82;27140;-67
2021/03/01 02:30:31;;;;;;;8.68;5.62;;;;;;;0.20;99.01;100201.53;1748068;82;21383;-67
2021/03/01 02:33:22;;;;;;;11.35;6.12;;;;;;;0.20;99.11;100199.36;1748056;82;21202;-67
2021/03/01 02:35:57;;;;;;;9.30;6.10;;;;;;;0.19;99.18;100199.89;1748217;82;21067;-67
2021/03/01 02:38:29;;;;;;;8.38;5.70;;;;;;;0.20;99.20;100196.66;1748079;82;21170;-71
2021/03/01 02:40:57;;;;;;;7.67;4.95;;;;;;;0.20;99.19;100195.31;1748261;82;21138;-71
2021/03/01 02:43:26;;;;;;;9.18;6.12;;;;;;;0.21;99.30;100204.53;1748137;82;22291;-70
2021/03/01 02:45:54;;;;;;;8.63;5.03;;;;;;;0.21;99.24;100202.36;1747984;81;20928;-70
2021/03/01 02:48:21;;;;;;;7.67;5.37;;;;;;;0.21;99.12;100222.61;1748136;82;21028;-70
2021/03/01 02:50:49;;;;;;;8.50;5.72;;;;;;;0.20;99.00;100224.48;1748102;82;21158;-70
2021/03/01 02:53:17;;;;;;;7.30;5.42;;;;;;;0.19;98.99;100227.41;1757783;80;21152;-70
2021/03/01 02:55:48;;;;;;;7.05;5.03;;;;;;;0.20;99.03;100227.72;1753684;80;21288;-70
2021/03/01 02:58:18;;;;;;;8.58;5.87;;;;;;;0.19;99.01;100225.54;1783517;80;21192;-71
2021/03/01 03:00:46;;;;;;;8.05;5.85;;;;;;;0.20;99.03;100222.31;1783548;80;21180;-68
2021/03/01 03:03:14;;;;;;;11.60;6.17;;;;;;;0.21;99.00;100227.48;1783850;80;21061;-68
2021/03/01 03:05:43;;;;;;;7.45;5.33;;;;;;;0.22;98.94;100231.00;1783616;79;21686;-68
2021/03/01 03:08:12;;;;;;;6.42;4.85;;;;;;;0.19;98.68;100229.59;1783625;80;21371;-68
2021/03/01 03:10:41;;;;;;;8.88;4.95;;;;;;;0.17;98.60;100233.58;1783789;80;21923;-68
2021/03/01 03:13:09;;;;;;;5.90;4.60;;;;;;;0.15;98.60;100237.86;1783498;80;21183;-68
2021/03/01 03:15:39;;;;;;;6.55;4.37;;;;;;;0.15;98.55;100235.68;1783813;80;21572;-68
2021/03/01 03:18:11;;;;;;;6.90;4.30;;;;;;;0.15;98.58;100241.91;1787896;80;21065;-68
2021/03/01 03:20:39;;;;;;;8.10;4.70;;;;;;;0.16;98.53;100246.25;1789273;80;21207;-68
2021/03/01 03:23:07;;;;;;;6.22;4.20;;;;;;;0.16;98.43;100242.73;1751074;80;21602;-68
2021/03/01 03:25:35;;;;;;;9.28;4.70;;;;;;;0.16;98.36;100244.90;1738033;81;21192;-68
2021/03/01 03:28:05;;;;;;;8.08;4.85;;;;;;;0.15;98.26;100260.80;1741003;81;21124;-68
2021/03/01 03:30:34;;;;;;;7.20;4.37;;;;;;;0.15;98.27;100264.86;1750408;81;21096;-69
2021/03/01 03:33:04;;;;;;;5.75;3.45;;;;;;;0.16;98.24;100264.33;1745556;81;23526;-69
2021/03/01 03:35:32;;;;;;;6.37;4.42;;;;;;;0.16;98.10;100269.20;1745158;80;20954;-68
2021/03/01 03:38:22;;;;;;;6.22;4.72;;;;;;;0.15;97.98;100275.66;1737486;81;21100;-70
2021/03/01 03:40:54;;;;;;;6.35;4.53;;;;;;;0.14;98.05;100282.11;1744918;81;21160;-69
2021/03/01 03:43:21;;;;;;;6.12;4.03;;;;;;;0.14;97.98;100282.64;1715341;81;21206;-68
2021/03/01 03:45:52;;;;;;;5.47;4.03;;;;;;;0.13;97.89;100285.86;1744524;81;21203;-68
2021/03/01 03:48:21;;;;;;;7.47;3.95;;;;;;;0.13;97.90;100290.44;1740732;81;21179;-69
2021/03/01 03:50:53;;;;;;;5.08;4.00;;;;;;;0.15;97.97;100290.50;1730483;83;21000;-69
2021/03/01 03:53:23;;;;;;;5.67;3.75;;;;;;;0.17;97.92;100294.33;1739071;81;21638;-68
2021/03/01 03:55:50;;;;;;;5.30;4.17;;;;;;;0.16;97.75;100300.78;1758192;81;21556;-68
2021/03/01 03:58:21;;;;;;;5.80;4.10;;;;;;;0.16;97.72;100303.48;1730613;81;23496;-68
2021/03/01 04:00:52;;;;;;;6.58;4.70;;;;;;;0.16;97.74;100300.78;1731232;81;21156;-68
2021/03/01 04:06:00;;;;;;;10.25;5.85;;;;;;;0.17;97.63;100305.95;1863015;75;22693;-67
2021/03/01 04:08:31;;;;;;;10.03;5.60;;;;;;;0.12;97.62;100310.39;1818914;77;21156;-67
2021/03/01 04:10:59;;;;;;;8.35;5.70;;;;;;;0.14;97.71;100315.03;1808354;79;21197;-67
2021/03/01 04:13:28;;;;;;;6.83;4.85;;;;;;;0.16;97.75;100318.33;1808436;79;21007;-67
2021/03/01 04:15:56;;;;;;;6.65;3.80;;;;;;;0.17;97.71;100321.33;1759456;81;21599;-67
2021/03/01 04:18:31;;;;;;;5.65;3.67;;;;;;;0.16;97.61;100325.08;1759202;81;21037;-68
2021/03/01 04:21:02;;;;;;;5.90;3.83;;;;;;;0.15;97.56;100326.13;1758943;81;20922;-67
2021/03/01 04:23:30;;;;;;;4.83;3.17;;;;;;;0.16;97.56;100330.48;1759426;81;21262;-68
2021/03/01 04:25:59;;;;;;;4.00;3.02;;;;;;;0.16;97.51;100325.91;1782296;79;21069;-67
2021/03/01 04:28:27;;;;;;;6.03;3.05;;;;;;;0.15;97.40;100331.53;1803485;79;20990;-68
2021/03/01 04:30:54;;;;;;;4.35;3.10;;;;;;;0.14;97.36;100333.41;1803352;79;21584;-68
2021/03/01 04:33:22;;;;;;;4.60;3.35;;;;;;;0.16;97.44;100339.93;1803466;79;21343;-68
2021/03/01 04:35:50;;;;;;;5.05;3.62;;;;;;;0.17;97.37;100340.23;1803416;79;21193;-68
2021/03/01 04:38:17;;;;;;;6.58;4.37;;;;;;;0.18;97.29;100345.92;1782093;79;20972;-69
2021/03/01 04:40:46;;;;;;;8.53;5.03;;;;;;;0.17;97.06;100348.33;1771712;80;21484;-71
2021/03/01 04:43:14;;;;;;;10.95;6.03;;;;;;;0.15;97.01;100343.16;1758596;81;21131;-69
2021/03/01 04:45:43;;;;;;;10.30;6.22;;;;;;;0.16;97.09;100343.98;1720578;82;21076;-68
2021/03/01 04:48:12;;;;;;;11.03;6.28;;;;;;;0.17;97.07;100346.45;1749335;82;21200;-68
2021/03/01 04:50:42;;;;;;;12.95;6.97;;;;;;;0.17;96.97;100355.08;1757588;80;21041;-68
2021/03/01 04:53:09;;;;;;;9.33;5.08;;;;;;;0.18;96.97;100362.13;1756358;80;21066;-69
2021/03/01 04:55:37;;;;;;;9.35;4.85;;;;;;;0.21;97.11;100359.80;1781975;80;21501;-66
2021/03/01 04:58:06;;;;;;;10.32;5.28;;;;;;;0.22;96.90;100367.38;1781942;80;21017;-70
2021/03/01 05:00:35;;;;;;;10.53;5.30;;;;;;;0.21;96.79;100368.42;1736662;80;21201;-68
2021/03/01 05:03:06;;;;;;;7.35;4.60;;;;;;;0.20;96.67;100366.78;1790809;80;21006;-68
2021/03/01 05:05:34;;;;;;;7.17;4.00;;;;;;;0.21;97.08;100367.90;1743541;81;21531;-68
2021/03/01 05:08:06;;;;;;;4.83;3.52;;;;;;;0.23;97.31;100364.97;1767391;80;21020;-70
2021/03/01 05:10:33;;;;;;;4.75;3.17;;;;;;;0.20;97.06;100372.17;1762008;81;21032;-69
2021/03/01 05:13:01;;;;;;;5.90;3.55;;;;;;;0.22;97.12;100372.77;1736089;81;21205;-69
2021/03/01 05:15:29;;;;;;;7.28;4.17;;;;;;;0.24;97.01;100382.30;1735224;82;20957;-70
2021/03/01 05:17:58;;;;;;;6.95;4.83;;;;;;;0.27;97.09;100383.72;1734821;82;20946;-70
2021/03/01 05:20:26;;;;;;;12.63;5.85;;;;;;;0.29;97.00;100388.37;1734938;82;21163;-68
2021/03/01 05:22:54;;;;;;;7.90;5.47;;;;;;;0.30;96.82;100396.77;1734934;81;21536;-68
2021/03/01 05:25:22;;;;;;;6.60;4.40;;;;;;;0.31;96.79;100399.23;1734827;82;21346;-68
2021/03/01 05:27:50;;;;;;;6.87;3.92;;;;;;;0.31;96.56;100399.77;1734773;82;20950;-68
2021/03/01 05:30:19;;;;;;;6.20;4.12;;;;;;;0.32;96.53;100412.22;1708156;82;21060;-69
2021/03/01 05:32:47;;;;;;;6.33;4.15;;;;;;;0.30;96.34;100412.97;1734902;82;21143;-70
2021/03/01 05:35:14;;;;;;;8.33;4.40;;;;;;;0.30;96.25;100417.84;1734854;82;21029;-70
2021/03/01 05:37:42;;;;;;;7.67;3.58;;;;;;;0.29;96.08;100427.00;1734232;82;23596;-74
2021/03/01 05:40:11;;;;;;;5.72;3.70;;;;;;;0.28;95.93;100428.58;1734595;82;20974;-69
2021/03/01 05:42:38;;;;;;;5.58;3.37;;;;;;;0.26;95.89;100436.08;1735184;81;20922;-69
2021/03/01 05:45:09;;;;;;;6.42;4.00;;;;;;;0.27;95.93;100435.03;1734388;81;21175;-68
2021/03/01 05:47:38;;;;;;;6.10;4.03;;;;;;;0.29;95.97;100442.38;1736145;81;21483;-68
2021/03/01 05:50:08;;;;;;;7.22;4.37;;;;;;;0.32;95.88;100451.38;1735871;81;21396;-69
2021/03/01 05:52:38;;;;;;;6.95;4.12;;;;;;;0.35;95.87;100454.16;1736027;82;21654;-69
2021/03/01 05:55:07;;;;;;;6.67;4.20;;;;;;;0.38;95.87;100459.10;1736046;82;21604;-70
2021/03/01 05:57:35;;;;;;;6.40;4.10;;;;;;;0.41;95.79;100471.63;1734871;82;21183;-69
2021/03/01 06:00:04;;;;;;;5.25;3.90;;;;;;;0.42;95.60;100471.11;1735180;82;21591;-72
2021/03/01 06:02:32;;;;;;;4.10;3.00;;;;;;;0.43;95.65;100480.34;1735038;82;21897;-69
2021/03/01 06:05:02;;;;;;;4.12;3.00;;;;;;;0.39;95.35;100479.66;1743256;81;20948;-70
2021/03/01 06:07:30;;;;;;;4.47;3.05;;;;;;;0.36;95.33;100483.64;1748106;81;21087;-69
2021/03/01 06:09:59;;;;;;;6.20;3.35;;;;;;;0.39;95.49;100481.84;1735546;81;20955;-69
2021/03/01 06:12:26;;;;;;;5.58;3.80;;;;;;;0.44;95.61;100482.52;1731217;82;21134;-69
2021/03/01 06:14:55;;;;;;;6.00;3.90;;;;;;;0.49;95.56;100488.06;1731270;82;21374;-69
2021/03/01 06:17:23;;;;;;;5.25;3.60;;;;;;;0.49;95.26;100495.64;1731302;82;21668;-69
2021/03/01 06:19:56;;;;;;;4.65;3.12;;;;;;;0.52;95.23;100493.02;1759761;81;21060;-69
2021/03/01 06:22:42;;;;;;;6.35;3.70;;;;;;;0.57;95.36;100502.09;1730574;81;21593;-69
2021/03/01 06:25:16;;;;;;;6.15;4.22;;;;;;;0.63;95.10;100509.78;1759741;81;20936;-68
2021/03/01 06:27:48;;;;;;;8.75;4.83;;;;;;;0.64;94.75;100517.66;1731367;82;21393;-71
2021/03/01 06:30:19;;;;;;;7.35;4.83;;;;;;;0.66;94.52;100533.66;1759704;81;21151;-70
2021/03/01 06:33:14;;;;;;;7.83;4.92;;;;;;;0.68;94.20;100542.36;1731105;82;21023;-68
2021/03/01 06:35:57;;;;;;;7.87;4.47;;;;;;;0.68;94.10;100544.23;1754543;81;20960;-70
2021/03/01 06:38:35;;;;;;;6.80;4.15;;;;;;;0.67;93.97;100559.63;1739290;81;21129;-69
2021/03/01 06:41:16;;;;;;;11.35;4.92;;;;;;;0.68;93.91;100564.50;1760285;81;22265;-74
2021/03/01 06:43:58;;;;;;;8.55;5.22;;;;;;;0.71;94.27;100568.11;1760436;81;21555;-72
2021/03/01 06:46:29;;;;;;;10.55;5.00;;;;;;;0.74;94.09;100575.77;1760659;80;21045;-72
2021/03/01 06:49:13;;;;;;;7.60;4.10;;;;;;;0.74;94.00;100578.47;1759951;81;21115;-71
2021/03/01 06:51:41;;;;;;;6.85;4.17;;;;;;;0.75;93.67;100584.17;1744283;81;21120;-71
2021/03/01 06:54:10;;;;;;;7.50;4.75;;;;;;;0.72;93.34;100589.50;1759549;81;21206;-70
2021/03/01 06:56:42;;;;;;;6.65;3.90;;;;;;;0.73;93.47;100588.98;1759715;80;21695;-72
2021/03/01 06:59:15;;;;;;;8.70;4.87;;;;;;;0.77;93.45;100592.87;1760230;80;26619;-68
2021/03/01 07:01:49;;;;;;;14.00;6.75;;;;;;;0.81;93.35;100600.31;1760096;80;21619;-69
2021/03/01 07:04:27;;;;;;;18.50;7.85;;;;;;;0.84;93.19;100603.09;1760176;81;20947;-72
2021/03/01 07:06:57;;;;;;;19.98;8.23;;;;;;;0.88;93.23;100602.94;1757137;81;21368;-74
2021/03/01 07:09:29;;;;;;;15.20;7.37;;;;;;;0.89;92.93;100606.77;1757075;81;20998;-77
2021/03/01 07:11:57;;;;;;;9.45;4.62;;;;;;;0.91;92.91;100611.42;1757346;81;21560;-72
2021/03/01 07:14:27;;;;;;;6.58;4.55;;;;;;;0.92;92.62;100610.37;1713830;81;21027;-70
2021/03/01 07:16:57;;;;;;;7.08;4.42;;;;;;;0.91;92.49;100617.35;1757136;81;20986;-71
2021/03/01 07:19:32;;;;;;;9.68;5.35;;;;;;;0.92;92.44;100617.66;1756201;81;21297;-74
2021/03/01 07:22:06;;;;;;;10.72;4.42;;;;;;;0.89;92.21;100618.11;1756799;80;21037;-79
2021/03/01 07:24:34;;;;;;;6.45;4.17;;;;;;;0.92;92.33;100624.41;1756985;80;21022;-75
2021/03/01 07:27:04;;;;;;;6.53;4.47;;;;;;;0.95;92.11;100616.67;1756935;80;21584;-77
2021/03/01 07:29:37;;;;;;;5.80;4.03;;;;;;;1.00;92.08;100624.11;1757023;80;20987;-79
2021/03/01 07:32:07;;;;;;;6.10;4.22;;;;;;;1.04;92.01;100621.25;1757795;81;21360;-85
2021/03/01 07:34:36;;;;;;;7.60;4.72;;;;;;;1.09;91.76;100626.80;1750301;80;21608;-79
2021/03/01 07:37:05;;;;;;;6.22;4.28;;;;;;;1.10;90.94;100628.98;1750200;82;21333;-80
2021/03/01 07:39:33;;;;;;;8.03;5.05;;;;;;;1.10;91.06;100628.98;1750327;80;21048;-79
2021/03/01 07:42:01;;;;;;;7.75;4.55;;;;;;;1.10;91.03;100628.45;1750334;81;21499;-70
2021/03/01 07:44:34;;;;;;;8.65;4.85;;;;;;;1.14;90.97;100626.95;1749965;82;21340;-70
2021/03/01 07:47:04;;;;;;;7.13;4.77;;;;;;;1.15;90.49;100625.89;1758779;81;20958;-68
2021/03/01 07:49:48;;;;;;;6.47;4.58;;;;;;;1.16;90.43;100629.39;1750271;82;20937;-67
2021/03/01 07:52:31;;;;;;;9.30;5.12;;;;;;;1.20;90.62;100625.19;1750012;82;21001;-68
2021/03/01 07:55:09;;;;;;;9.50;5.70;;;;;;;1.23;90.50;100632.84;1758545;81;21477;-67
2021/03/01 07:57:39;;;;;;;7.53;5.25;;;;;;;1.25;90.33;100626.15;1720625;82;21397;-69
2021/03/01 08:00:27;;;;;;;8.88;5.33;;;;;;;1.28;90.23;100629.75;1758108;80;21141;-69
2021/03/01 08:02:55;;;;;;;7.42;5.15;;;;;;;1.31;90.27;100627.95;1749632;80;21186;-68
2021/03/01 08:05:31;;;;;;;8.30;5.22;;;;;;;1.32;90.32;100635.53;1752861;81;21178;-68
2021/03/01 08:07:59;;;;;;;9.28;6.12;;;;;;;1.33;90.59;100637.19;1736317;82;21107;-67
2021/03/01 08:10:38;;;;;;;9.55;6.20;;;;;;;1.36;90.30;100642.66;1752149;81;22205;-67
2021/03/01 08:13:08;;;;;;;8.20;5.35;;;;;;;1.38;90.80;100634.63;1766620;80;21076;-67
2021/03/01 08:15:42;;;;;;;8.88;5.58;;;;;;;1.38;90.05;100637.33;1766793;81;21144;-67
2021/03/01 08:18:13;;;;;;;8.75;6.37;;;;;;;1.36;89.89;100639.44;1766300;80;21132;-69
2021/03/01 08:20:46;;;;;;;10.17;6.00;;;;;;;1.35;89.94;100643.72;1767001;81;22200;-67
2021/03/01 08:23:15;;;;;;;9.93;6.10;;;;;;;1.37;90.06;100651.91;1766220;80;21380;-68
2021/03/01 08:25:48;;;;;;;10.98;6.28;;;;;;;1.42;90.26;100649.87;1766778;81;21001;-66
2021/03/01 08:28:30;;;;;;;12.23;6.53;;;;;;;1.48;90.50;100658.42;1766628;80;21005;-66
2021/03/01 08:31:09;;;;;;;9.75;6.75;;;;;;;1.53;90.47;100658.04;1765773;80;21176;-68
2021/03/01 08:33:37;;;;;;;11.83;7.70;;;;;;;1.56;90.36;100667.58;1763976;81;21140;-67
2021/03/01 08:36:31;;;;;;;12.58;8.15;;;;;;;1.58;90.23;100666.83;1761336;81;21209;-67
2021/03/01 08:38:59;;;;;;;13.43;8.20;;;;;;;1.60;90.18;100668.25;1677401;85;21072;-67
2021/03/01 08:41:39;;;;;;;14.10;8.05;;;;;;;1.63;90.08;100666.44;1708346;83;21045;-67
2021/03/01 08:44:21;;;;;;;11.33;7.08;;;;;;;1.69;89.99;100664.69;1726025;82;21584;-67
2021/03/01 08:46:50;;;;;;;12.05;6.83;;;;;;;1.75;89.83;100674.57;1725966;82;21647;-69
2021/03/01 08:49:24;;;;;;;10.13;6.50;;;;;;;1.75;89.36;100670.50;1708645;84;22295;-68
2021/03/01 08:51:55;;;;;;;10.30;6.00;;;;;;;1.75;89.39;100679.98;1701250;84;21262;-68
2021/03/01 08:54:30;;;;;;;10.93;6.33;;;;;;;1.78;89.20;100674.11;1726160;82;21172;-68
2021/03/01 08:57:07;;;;;;;12.33;5.67;;;;;;;1.75;89.10;100678.63;1698187;84;21172;-68
2021/03/01 08:59:35;;;;;;;19.25;6.78;;;;;;;1.82;89.37;100683.42;1724903;81;21567;-68
2021/03/01 09:02:03;;;;;;;15.83;7.92;;;;;;;1.87;89.13;100681.37;1726651;83;22379;-68
2021/03/01 09:04:32;;;;;;;19.90;7.45;;;;;;;1.93;88.93;100684.52;1726626;83;21049;-67
2021/03/01 09:07:08;;;;;;;18.95;6.55;;;;;;;1.98;88.90;100690.89;1726724;83;21535;-69
2021/03/01 09:09:51;;;;;;;14.05;6.92;;;;;;;2.05;87.91;100686.73;1698734;84;21159;-67
2021/03/01 09:12:20;;;;;;;22.17;7.37;;;;;;;2.08;88.02;100692.21;1735203;81;21108;-68
2021/03/01 09:14:48;;;;;;;20.68;6.35;;;;;;;2.19;87.83;100690.88;1709084;84;21235;-67
2021/03/01 09:17:16;;;;;;;30.00;8.28;;;;;;;2.31;87.43;100693.61;1750030;81;21080;-68
2021/03/01 09:19:44;;;;;;;23.87;8.10;;;;;;;2.39;87.25;100707.32;1730104;81;21187;-67
2021/03/01 09:22:11;;;;;;;15.55;6.58;;;;;;;2.41;86.54;100704.67;1726516;83;22051;-68
2021/03/01 09:24:39;;;;;;;24.43;8.48;;;;;;;2.42;86.20;100711.74;1726722;83;21781;-68
2021/03/01 09:27:06;;;;;;;30.32;7.67;;;;;;;2.43;85.89;100716.63;1726732;83;23542;-67
2021/03/01 09:29:34;;;;;;;11.48;5.83;;;;;;;2.41;85.47;100716.87;1726724;83;21040;-67
2021/03/01 09:32:05;;;;;;;10.95;6.17;;;;;;;2.38;85.29;100721.93;1726427;83;21144;-68
2021/03/01 09:34:33;;;;;;;10.90;5.83;;;;;;;2.31;85.02;100721.50;1726667;83;21172;-68
2021/03/01 09:37:05;;;;;;;8.43;5.35;;;;;;;2.30;85.44;100728.55;1724771;83;21302;-69
2021/03/01 09:39:37;;;;;;;7.75;5.70;;;;;;;2.28;85.35;100734.20;1691610;84;21213;-69
2021/03/01 09:42:05;;;;;;;9.73;5.67;;;;;;;2.30;85.48;100739.38;1678213;83;21127;-69
2021/03/01 09:44:36;;;;;;;8.88;5.62;;;;;;;2.31;85.04;100741.03;1704674;84;20987;-69
2021/03/01 09:47:03;;;;;;;11.05;5.85;;;;;;;2.27;84.72;100743.91;1722050;83;22102;-69
2021/03/01 09:49:31;;;;;;;8.95;5.35;;;;;;;2.26;85.03;100749.03;1691704;84;21176;-69
2021/03/01 09:51:59;;;;;;;9.83;5.70;;;;;;;2.27;85.19;100748.80;1722115;83;21382;-66
2021/03/01 09:54:26;;;;;;;9.20;5.53;;;;;;;2.32;85.09;100754.84;1691612;84;20934;-69
2021/03/01 09:56:56;;;;;;;9.05;5.87;;;;;;;2.38;85.09;100758.52;1722055;83;21119;-67
2021/03/01 09:59:41;;;;;;;7.12;4.12;;;;;;;2.37;84.83;100759.05;1691755;84;21608;-67
2021/03/01 10:02:17;;;;;;;8.08;5.33;;;;;;;2.39;84.56;100758.28;1722228;83;21480;-67
2021/03/01 10:04:46;;;;;;;9.45;5.10;;;;;;;2.36;84.60;100753.33;1691767;84;22278;-67
2021/03/01 10:07:27;;;;;;;8.83;4.75;;;;;;;2.39;85.02;100753.39;1718629;83;21148;-68
2021/03/01 10:09:56;;;;;;;11.25;5.40;;;;;;;2.48;84.84;100752.82;1691563;84;20982;-73
2021/03/01 10:12:26;;;;;;;8.70;5.45;;;;;;;2.54;84.85;100751.06;1721992;83;21592;-80
2021/03/01 10:14:58;;;;;;;7.60;4.30;;;;;;;2.61;84.84;100748.55;1704577;84;21169;-70
2021/03/01 10:17:28;;;;;;;8.70;4.95;;;;;;;2.67;84.35;100746.78;1722328;83;21388;-70
2021/03/01 10:20:09;;;;;;;6.05;4.22;;;;;;;2.67;84.40;100745.95;1704468;84;21204;-70
2021/03/01 10:23:02;;;;;;;5.33;4.15;;;;;;;2.64;83.39;100741.30;1721374;83;21551;-70
2021/03/01 10:25:38;;;;;;;5.75;3.95;;;;;;;2.54;83.31;100742.93;1721807;83;20965;-70
2021/03/01 10:28:28;;;;;;;6.60;4.75;;;;;;;2.45;83.41;100737.55;1691667;84;21140;-70
2021/03/01 10:31:05;;;;;;;6.08;4.50;;;;;;;2.45;83.53;100743.80;1722101;83;21207;-69
2021/03/01 10:33:53;;;;;;;4.95;4.00;;;;;;;2.41;83.39;100743.97;1682469;84;21141;-71
2021/03/01 10:36:29;;;;;;;7.45;4.28;;;;;;;2.34;83.89;100741.89;1722088;83;20994;-70
2021/03/01 10:39:17;;;;;;;5.40;4.08;;;;;;;2.28;84.20;100740.97;1668352;84;21259;-69
2021/03/01 10:41:53;;;;;;;7.83;4.35;;;;;;;2.28;84.49;100739.61;1675171;85;21179;-70
2021/03/01 10:44:34;;;;;;;7.80;4.20;;;;;;;2.27;83.96;100737.14;1675157;85;21391;-70
2021/03/01 10:47:14;;;;;;;5.40;3.85;;;;;;;2.27;84.23;100739.84;1674832;83;21235;-69
2021/03/01 10:49:42;;;;;;;8.98;4.87;;;;;;;2.32;84.51;100738.06;1673707;85;21635;-71
2021/03/01 10:52:12;;;;;;;8.45;4.60;;;;;;;2.41;83.96;100740.44;1675103;85;21091;-72
2021/03/01 10:54:41;;;;;;;7.83;4.28;;;;;;;2.44;83.90;100745.39;1674840;85;21431;-72
2021/03/01 10:57:09;;;;;;;8.65;5.10;;;;;;;2.49;83.85;100743.63;1691484;84;21216;-72
2021/03/01 10:59:37;;;;;;;7.25;4.33;;;;;;;2.55;84.08;100744.59;1675079;85;21548;-72
2021/03/01 11:02:05;;;;;;;6.58;4.40;;;;;;;2.65;83.91;100751.08;1675214;85;21564;-71
2021/03/01 11:04:34;;;;;;;5.28;3.72;;;;;;;2.76;83.27;100748.62;1675070;85;21143;-71
2021/03/01 11:07:02;;;;;;;9.60;4.97;;;;;;;2.88;82.86;100751.63;1675085;85;21064;-71
2021/03/01 11:09:31;;;;;;;9.10;4.97;;;;;;;2.98;82.51;100740.98;1675138;85;21512;-72
2021/03/01 11:11:59;;;;;;;14.28;7.92;;;;;;;3.07;82.49;100742.80;1675025;85;20978;-71
2021/03/01 11:14:26;;;;;;;24.63;12.85;;;;;;;3.13;81.73;100741.86;1654029;85;21096;-71
2021/03/01 11:16:53;;;;;;;16.05;8.33;;;;;;;3.19;81.89;100748.23;1674848;85;21591;-71
2021/03/01 11:19:21;;;;;;;13.70;6.70;;;;;;;3.26;81.45;100748.39;1675181;85;21684;-71
2021/03/01 11:21:49;;;;;;;7.45;4.53;;;;;;;3.34;79.94;100747.73;1675103;85;21393;-73
2021/03/01 11:24:19;;;;;;;5.70;3.87;;;;;;;3.29;78.87;100748.45;1675038;85;21096;-73
2021/03/01 11:26:46;;;;;;;7.67;4.62;;;;;;;3.24;79.17;100743.73;1674981;85;21195;-74
2021/03/01 11:29:14;;;;;;;5.62;3.75;;;;;;;3.23;79.31;100748.05;1675150;85;21152;-75
2021/03/01 11:31:42;;;;;;;4.78;3.62;;;;;;;3.23;79.23;100757.01;1675071;85;21215;-75
2021/03/01 11:34:11;;;;;;;7.62;4.72;;;;;;;3.21;78.92;100752.88;1675037;85;21230;-74
2021/03/01 11:36:38;;;;;;;9.60;5.37;;;;;;;3.16;78.95;100754.95;1675008;85;20985;-73
2021/03/01 11:39:08;;;;;;;20.35;10.48;;;;;;;3.09;77.82;100748.00;1682103;84;21086;-73
2021/03/01 11:41:38;;;;;;;9.83;6.05;;;;;;;2.98;78.59;100753.72;1685156;84;20960;-73
2021/03/01 11:44:07;;;;;;;7.40;4.62;;;;;;;2.97;78.98;100748.83;1678934;84;21595;-73
2021/03/01 11:46:36;;;;;;;6.58;4.00;;;;;;;2.95;77.65;100743.34;1699732;83;21398;-73
2021/03/01 11:49:04;;;;;;;9.55;4.92;;;;;;;2.83;77.96;100750.16;1685076;85;21007;-75
2021/03/01 11:51:32;;;;;;;9.03;5.58;;;;;;;2.80;78.56;100749.80;1657394;86;21095;-76